Time;durP1;ratioP1;P1;durP2;ratioP2;P2;SDS_P1;SDS_P2;PMS_P1;PMS_P2;Temp;Humidity;BMP_temperature;BMP_pressure;BME280_temperature;BME280_humidity;BME280_pressure;Samples;Min_cycle;Max_cycle;Signal;HPM_P1;HPM_P2
2022/03/05 00:01:48;;;;;;;22.25;12.75;;;0.40;99.90;;;;;;5085251;28;20126;-70
2022/03/05 00:04:15;;;;;;;22.60;12.77;;;0.40;99.90;;;;;;5084885;28;20045;-70
2022/03/05 00:06:41;;;;;;;23.08;13.27;;;0.40;99.90;;;;;;5085564;28;20042;-70
2022/03/05 00:09:07;;;;;;;22.95;13.00;;;0.40;99.90;;;;;;5082695;28;20059;-71
2022/03/05 00:11:33;;;;;;;22.02;13.07;;;0.30;99.90;;;;;;5084049;28;20040;-71
2022/03/05 00:13:58;;;;;;;21.23;12.60;;;0.30;99.90;;;;;;5068115;28;20052;-71
2022/03/05 00:16:24;;;;;;;22.70;12.05;;;0.30;99.90;;;;;;5085378;28;20047;-70
2022/03/05 00:18:50;;;;;;;19.88;12.30;;;0.30;99.90;;;;;;5084869;28;20036;-70
2022/03/05 00:21:16;;;;;;;21.05;13.00;;;0.30;99.90;;;;;;5084785;28;20043;-71
2022/03/05 00:23:42;;;;;;;21.33;12.88;;;0.20;99.90;;;;;;5085856;28;20137;-71
2022/03/05 00:26:08;;;;;;;25.02;12.80;;;0.20;99.90;;;;;;5068220;28;20048;-71
2022/03/05 00:28:33;;;;;;;22.27;12.57;;;0.20;99.90;;;;;;5083528;28;20127;-71
2022/03/05 00:31:00;;;;;;;22.88;13.18;;;0.20;99.90;;;;;;5084770;28;20383;-71
2022/03/05 00:33:27;;;;;;;24.35;13.45;;;0.20;99.90;;;;;;5085026;28;20398;-71
2022/03/05 00:35:52;;;;;;;22.92;13.55;;;0.20;99.90;;;;;;5079762;28;20039;-71
2022/03/05 00:38:18;;;;;;;22.23;12.48;;;0.10;99.90;;;;;;5064401;28;20037;-71
2022/03/05 00:40:44;;;;;;;24.67;12.73;;;0.10;99.90;;;;;;5064437;28;20037;-71
2022/03/05 00:43:10;;;;;;;21.38;13.20;;;0.10;99.90;;;;;;5097616;28;20045;-74
2022/03/05 00:45:37;;;;;;;21.67;12.68;;;0.10;99.90;;;;;;5064667;28;20408;-71
2022/03/05 00:48:03;;;;;;;24.95;13.07;;;0.00;99.90;;;;;;5063766;28;20122;-72
2022/03/05 00:50:30;;;;;;;23.55;13.02;;;0.00;99.90;;;;;;5079723;28;20063;-71
2022/03/05 00:52:55;;;;;;;20.98;12.75;;;0.00;99.90;;;;;;5064333;28;20040;-70
2022/03/05 00:55:21;;;;;;;23.02;12.93;;;0.00;99.90;;;;;;5063985;28;20045;-70
2022/03/05 00:57:47;;;;;;;25.70;13.88;;;-0.10;99.90;;;;;;5097331;28;20152;-71
2022/03/05 01:00:13;;;;;;;21.92;12.50;;;-0.10;99.90;;;;;;5063420;28;20132;-71
2022/03/05 01:02:42;;;;;;;23.95;13.73;;;-0.10;99.90;;;;;;5063204;28;20108;-72
2022/03/05 01:05:09;;;;;;;22.45;12.80;;;-0.20;99.90;;;;;;5096503;28;20045;-72
2022/03/05 01:07:35;;;;;;;21.83;13.30;;;-0.20;99.90;;;;;;5093300;28;20045;-73
2022/03/05 01:10:00;;;;;;;20.27;12.30;;;-0.20;99.90;;;;;;5095698;28;20052;-71
2022/03/05 01:12:26;;;;;;;25.25;13.35;;;-0.20;99.90;;;;;;5095958;28;20114;-71
2022/03/05 01:14:52;;;;;;;25.77;13.10;;;-0.20;99.90;;;;;;5063193;28;20037;-71
2022/03/05 01:17:18;;;;;;;25.75;14.00;;;-0.20;99.90;;;;;;5096716;28;20037;-71
2022/03/05 01:19:44;;;;;;;24.23;13.27;;;-0.20;99.90;;;;;;5062476;28;20372;-71
2022/03/05 01:22:10;;;;;;;22.27;13.23;;;-0.20;99.90;;;;;;5078767;28;20037;-71
2022/03/05 01:24:36;;;;;;;21.92;12.70;;;-0.30;99.90;;;;;;5096875;28;20048;-71
2022/03/05 01:27:02;;;;;;;26.00;12.82;;;-0.30;99.90;;;;;;5080679;28;20041;-71
2022/03/05 01:29:28;;;;;;;24.08;12.52;;;-0.30;99.90;;;;;;5079426;28;20048;-71
2022/03/05 01:31:53;;;;;;;22.75;12.65;;;-0.30;99.90;;;;;;5096208;28;20037;-72
2022/03/05 01:34:20;;;;;;;25.23;13.50;;;-0.30;99.90;;;;;;5073705;28;20064;-71
2022/03/05 01:36:45;;;;;;;23.48;13.38;;;-0.30;99.90;;;;;;5062647;28;20119;-71
2022/03/05 01:39:12;;;;;;;22.05;11.95;;;-0.30;99.90;;;;;;5061838;28;20079;-71
2022/03/05 01:41:37;;;;;;;23.85;13.27;;;-0.40;99.90;;;;;;5095757;28;20120;-71
2022/03/05 01:44:04;;;;;;;25.52;13.32;;;-0.40;99.90;;;;;;5074335;28;20425;-72
2022/03/05 01:46:36;;;;;;;21.77;12.52;;;-0.40;99.90;;;;;;5088271;28;20029;-71
2022/03/05 01:49:10;;;;;;;22.85;12.43;;;-0.40;99.90;;;;;;5093873;28;20041;-71
2022/03/05 01:51:37;;;;;;;23.10;12.68;;;-0.40;99.90;;;;;;5060360;28;20044;-72
2022/03/05 01:54:03;;;;;;;24.20;13.48;;;-0.40;99.90;;;;;;5093298;28;20041;-70
2022/03/05 01:56:30;;;;;;;21.02;12.05;;;-0.40;99.90;;;;;;5079091;28;20037;-72
2022/03/05 01:58:55;;;;;;;21.83;12.50;;;-0.50;99.90;;;;;;5061315;28;20101;-73
2022/03/05 02:01:23;;;;;;;21.70;12.07;;;-0.50;99.90;;;;;;5064367;28;20100;-72
2022/03/05 02:03:51;;;;;;;22.20;11.85;;;-0.40;99.90;;;;;;5066400;28;20049;-71
2022/03/05 02:06:17;;;;;;;22.90;11.98;;;-0.40;99.90;;;;;;5049683;28;20105;-74
2022/03/05 02:08:43;;;;;;;20.13;10.73;;;-0.50;99.90;;;;;;5082039;28;20049;-70
2022/03/05 02:11:08;;;;;;;22.13;12.20;;;-0.40;99.90;;;;;;5087349;28;20115;-71
2022/03/05 02:13:36;;;;;;;20.25;11.85;;;-0.50;99.90;;;;;;5079431;28;20045;-71
2022/03/05 02:16:02;;;;;;;19.83;11.55;;;-0.50;99.90;;;;;;5092628;28;20032;-70
2022/03/05 02:18:28;;;;;;;23.40;11.57;;;-0.40;99.90;;;;;;5085348;28;20044;-72
2022/03/05 02:20:54;;;;;;;21.75;11.90;;;-0.40;99.90;;;;;;5084972;28;20175;-71
2022/03/05 02:23:20;;;;;;;22.42;11.75;;;-0.50;99.90;;;;;;5085464;28;20090;-70
2022/03/05 02:26:02;;;;;;;20.23;11.90;;;-0.50;99.90;;;;;;5085752;28;20041;-71
2022/03/05 02:28:29;;;;;;;19.30;11.15;;;-0.50;99.90;;;;;;5086385;28;20052;-71
2022/03/05 02:30:55;;;;;;;18.92;11.18;;;-0.50;99.90;;;;;;5084970;28;20040;-71
2022/03/05 02:33:22;;;;;;;22.75;12.15;;;-0.50;99.90;;;;;;5084836;28;20044;-71
2022/03/05 02:35:49;;;;;;;24.30;12.50;;;-0.60;99.90;;;;;;5084903;28;20364;-70
2022/03/05 02:38:17;;;;;;;19.98;11.30;;;-0.60;99.90;;;;;;5085570;28;20036;-71
2022/03/05 02:40:45;;;;;;;22.87;11.37;;;-0.60;99.90;;;;;;5085404;28;20040;-71
2022/03/05 02:43:11;;;;;;;23.88;11.75;;;-0.60;99.90;;;;;;5067927;28;20364;-71
2022/03/05 02:45:38;;;;;;;22.05;11.20;;;-0.60;99.90;;;;;;5078265;28;20036;-70
2022/03/05 02:48:07;;;;;;;20.70;10.95;;;-0.60;99.90;;;;;;5064693;28;20595;-71
2022/03/05 02:50:33;;;;;;;20.70;11.23;;;-0.70;99.90;;;;;;5065423;28;20048;-71
2022/03/05 02:52:59;;;;;;;18.13;10.18;;;-0.70;99.90;;;;;;5081003;28;20419;-71
2022/03/05 02:55:25;;;;;;;18.33;10.95;;;-0.70;99.90;;;;;;5048057;28;20053;-72
2022/03/05 02:57:51;;;;;;;21.25;11.25;;;-0.70;99.90;;;;;;5064481;28;20098;-71
2022/03/05 03:00:17;;;;;;;22.13;10.43;;;-0.70;99.90;;;;;;5098264;28;20535;-71
2022/03/05 03:02:45;;;;;;;19.52;10.48;;;-0.70;99.90;;;;;;5064345;28;20037;-71
2022/03/05 03:05:12;;;;;;;21.00;11.15;;;-0.70;99.90;;;;;;5097730;28;20792;-71
2022/03/05 03:07:38;;;;;;;20.65;11.10;;;-0.70;99.90;;;;;;5097253;28;20044;-71
2022/03/05 03:10:05;;;;;;;22.35;10.85;;;-0.70;99.90;;;;;;5097614;28;20097;-72
2022/03/05 03:12:31;;;;;;;19.30;10.32;;;-0.70;99.90;;;;;;5097069;28;20468;-71
2022/03/05 03:14:57;;;;;;;19.27;11.38;;;-0.70;99.90;;;;;;5047648;28;20091;-71
2022/03/05 03:17:23;;;;;;;19.42;10.85;;;-0.70;99.90;;;;;;5064230;28;20045;-71
2022/03/05 03:19:50;;;;;;;22.25;10.40;;;-0.70;99.90;;;;;;5047821;28;20061;-71
2022/03/05 03:22:16;;;;;;;20.80;11.18;;;-0.70;99.90;;;;;;5048064;28;20048;-72
2022/03/05 03:24:42;;;;;;;21.13;11.07;;;-0.70;99.90;;;;;;5098076;28;20379;-71
2022/03/05 03:27:08;;;;;;;19.88;10.73;;;-0.70;99.90;;;;;;5047099;28;20475;-70
2022/03/05 03:29:34;;;;;;;19.02;10.30;;;-0.80;99.90;;;;;;5063768;28;20045;-73
2022/03/05 03:32:00;;;;;;;20.08;10.60;;;-0.70;99.90;;;;;;5098067;28;20039;-71
2022/03/05 03:34:26;;;;;;;18.85;10.60;;;-0.80;99.90;;;;;;5097576;28;20127;-70
2022/03/05 03:36:52;;;;;;;21.48;10.77;;;-0.80;99.90;;;;;;5097577;28;20533;-70
2022/03/05 03:39:18;;;;;;;19.95;10.43;;;-0.80;99.90;;;;;;5064378;28;20040;-71
2022/03/05 03:41:43;;;;;;;20.75;10.90;;;-0.80;99.90;;;;;;5064126;28;20033;-70
2022/03/05 03:44:09;;;;;;;22.35;11.48;;;-0.80;99.90;;;;;;5080410;28;20068;-72
2022/03/05 03:46:35;;;;;;;20.27;10.43;;;-0.80;99.90;;;;;;5096177;28;20041;-71
2022/03/05 03:49:01;;;;;;;19.35;9.95;;;-0.80;99.90;;;;;;5063106;28;20041;-71
2022/03/05 03:51:26;;;;;;;22.85;10.95;;;-0.90;99.90;;;;;;5062907;28;20127;-71
2022/03/05 03:53:52;;;;;;;19.45;9.93;;;-0.80;99.90;;;;;;5046313;28;20040;-71
2022/03/05 03:56:18;;;;;;;20.95;10.93;;;-0.80;99.90;;;;;;5063155;28;20049;-71
2022/03/05 03:58:44;;;;;;;25.35;11.20;;;-0.80;99.90;;;;;;5062817;28;20028;-71
2022/03/05 04:01:09;;;;;;;21.85;11.40;;;-0.90;99.90;;;;;;5062994;28;20049;-71
2022/03/05 04:03:35;;;;;;;23.40;11.55;;;-0.90;99.90;;;;;;5063297;28;20052;-71
2022/03/05 04:06:01;;;;;;;23.95;11.52;;;-0.90;99.90;;;;;;5063409;28;20051;-72
2022/03/05 04:08:41;;;;;;;22.77;11.52;;;-0.90;99.90;;;;;;5096695;28;20044;-70
2022/03/05 04:11:20;;;;;;;22.20;10.35;;;-0.90;99.90;;;;;;5041714;28;20076;-71
2022/03/05 04:13:47;;;;;;;22.77;11.07;;;-0.90;99.90;;;;;;5064750;28;20041;-71
2022/03/05 04:16:14;;;;;;;20.67;11.02;;;-0.90;99.90;;;;;;5062718;28;20044;-71
2022/03/05 04:18:40;;;;;;;23.52;11.43;;;-0.90;99.90;;;;;;5095770;28;20036;-71
2022/03/05 04:21:09;;;;;;;25.52;11.25;;;-0.90;99.90;;;;;;5096886;28;20041;-70
2022/03/05 04:23:35;;;;;;;23.85;11.65;;;-1.00;99.90;;;;;;5095411;28;20040;-71
2022/03/05 04:26:01;;;;;;;22.55;11.43;;;-0.90;99.90;;;;;;5061270;28;20033;-71
2022/03/05 04:28:27;;;;;;;23.60;11.65;;;-1.00;99.90;;;;;;5061967;28;20475;-72
2022/03/05 04:30:52;;;;;;;23.55;10.68;;;-1.00;99.90;;;;;;5045010;28;20391;-71
2022/03/05 04:33:18;;;;;;;21.40;10.82;;;-1.00;99.90;;;;;;5061940;28;20486;-71
2022/03/05 04:35:44;;;;;;;21.67;11.63;;;-1.00;99.90;;;;;;5079050;28;20099;-72
2022/03/05 04:38:09;;;;;;;22.35;10.65;;;-1.00;99.90;;;;;;5061555;28;20041;-71
2022/03/05 04:40:35;;;;;;;20.00;10.07;;;-1.00;99.90;;;;;;5062179;28;20539;-71
2022/03/05 04:43:02;;;;;;;22.70;11.57;;;-1.00;99.90;;;;;;5060870;28;20045;-71
2022/03/05 04:45:29;;;;;;;23.77;11.07;;;-1.00;99.90;;;;;;5042120;28;20052;-71
2022/03/05 04:47:55;;;;;;;21.98;11.40;;;-1.00;99.90;;;;;;5041350;28;20049;-71
2022/03/05 04:50:21;;;;;;;21.33;11.25;;;-1.00;99.90;;;;;;5041964;28;20063;-71
2022/03/05 04:52:46;;;;;;;25.13;11.50;;;-1.00;99.90;;;;;;5042837;28;20126;-74
2022/03/05 04:55:12;;;;;;;22.95;10.75;;;-1.00;99.90;;;;;;5041619;28;20063;-71
2022/03/05 04:57:38;;;;;;;22.58;11.15;;;-1.00;99.90;;;;;;5025045;28;20034;-71
2022/03/05 05:00:07;;;;;;;24.88;11.13;;;-1.00;99.90;;;;;;5075670;28;20091;-71
2022/03/05 05:02:33;;;;;;;25.50;11.32;;;-1.00;99.90;;;;;;5025628;28;20045;-71
2022/03/05 05:04:59;;;;;;;22.58;11.65;;;-1.00;99.90;;;;;;5044307;28;20048;-71
2022/03/05 05:07:25;;;;;;;20.73;10.57;;;-1.00;99.90;;;;;;5095272;28;20041;-72
2022/03/05 05:09:50;;;;;;;23.55;11.35;;;-1.00;99.90;;;;;;5076627;28;20051;-71
2022/03/05 05:12:16;;;;;;;22.38;11.15;;;-1.00;99.90;;;;;;5081784;28;20487;-71
2022/03/05 05:14:42;;;;;;;23.52;11.43;;;-1.00;99.90;;;;;;5048088;28;20068;-71
2022/03/05 05:17:08;;;;;;;20.50;11.10;;;-1.00;99.90;;;;;;5058260;28;20041;-71
2022/03/05 05:19:33;;;;;;;22.88;11.05;;;-1.00;99.90;;;;;;5075309;28;20053;-71
2022/03/05 05:22:01;;;;;;;23.13;11.98;;;-1.00;99.90;;;;;;5074824;28;20049;-73
2022/03/05 05:24:31;;;;;;;24.42;11.82;;;-1.00;99.90;;;;;;5074299;28;20045;-72
2022/03/05 05:26:57;;;;;;;22.65;10.80;;;-1.00;99.90;;;;;;5074629;28;20468;-71
2022/03/05 05:29:24;;;;;;;23.35;11.63;;;-1.00;99.90;;;;;;5077165;28;20096;-70
2022/03/05 05:31:50;;;;;;;23.88;11.30;;;-1.00;99.90;;;;;;5061131;28;20075;-71
2022/03/05 05:34:17;;;;;;;20.55;11.07;;;-1.00;99.90;;;;;;5094650;28;20044;-71
2022/03/05 05:36:43;;;;;;;23.52;10.98;;;-1.00;99.90;;;;;;5044285;28;20048;-72
2022/03/05 05:39:10;;;;;;;23.60;10.45;;;-1.10;99.90;;;;;;5094564;28;20094;-71
2022/03/05 05:41:37;;;;;;;23.48;11.38;;;-1.10;99.90;;;;;;5060497;28;20041;-69
2022/03/05 05:44:04;;;;;;;21.92;11.02;;;-1.10;99.90;;;;;;5044873;28;20048;-71
2022/03/05 05:46:30;;;;;;;22.08;10.75;;;-1.10;99.90;;;;;;5044662;28;20045;-71
2022/03/05 05:48:57;;;;;;;22.90;11.65;;;-1.10;99.90;;;;;;5094136;28;20051;-72
2022/03/05 05:51:27;;;;;;;21.48;10.57;;;-1.10;99.90;;;;;;5061007;28;20056;-71
2022/03/05 05:53:54;;;;;;;20.10;10.30;;;-1.10;99.90;;;;;;5060399;28;20045;-71
2022/03/05 05:56:19;;;;;;;21.55;10.82;;;-1.20;99.90;;;;;;5061427;28;20044;-73
2022/03/05 05:58:47;;;;;;;19.95;10.85;;;-1.20;99.90;;;;;;5060794;28;20036;-73
2022/03/05 06:01:12;;;;;;;20.52;10.63;;;-1.20;99.90;;;;;;5078243;28;20044;-71
2022/03/05 06:03:38;;;;;;;19.90;10.30;;;-1.20;99.90;;;;;;5069175;28;20052;-71
2022/03/05 06:06:04;;;;;;;23.70;11.05;;;-1.20;99.90;;;;;;5060520;28;20078;-71
2022/03/05 06:08:29;;;;;;;23.77;10.68;;;-1.20;99.90;;;;;;5094545;28;20051;-70
2022/03/05 06:10:57;;;;;;;20.00;10.45;;;-1.20;99.90;;;;;;5060827;28;20081;-74
2022/03/05 06:13:23;;;;;;;20.08;10.05;;;-1.20;99.90;;;;;;5061030;28;20048;-72
2022/03/05 06:15:49;;;;;;;19.40;10.20;;;-1.20;99.90;;;;;;5060871;28;20048;-72
2022/03/05 06:18:14;;;;;;;19.23;10.10;;;-1.20;99.90;;;;;;5060298;28;20033;-71
2022/03/05 06:20:40;;;;;;;23.35;10.45;;;-1.20;99.90;;;;;;5077958;28;20100;-71
2022/03/05 06:23:06;;;;;;;19.40;10.43;;;-1.20;99.90;;;;;;5093841;28;20045;-71
2022/03/05 06:25:32;;;;;;;20.75;10.02;;;-1.20;99.90;;;;;;5094118;28;20380;-70
2022/03/05 06:27:58;;;;;;;20.15;10.27;;;-1.20;99.90;;;;;;5094369;28;20373;-71
2022/03/05 06:30:23;;;;;;;19.17;10.23;;;-1.20;99.90;;;;;;5044449;28;20053;-71
2022/03/05 06:32:49;;;;;;;18.67;9.73;;;-1.10;99.90;;;;;;5094126;28;20044;-71
2022/03/05 06:35:15;;;;;;;20.13;10.13;;;-1.10;99.90;;;;;;5060041;28;20041;-71
2022/03/05 06:37:41;;;;;;;20.25;10.02;;;-1.10;99.90;;;;;;5059696;28;20033;-73
2022/03/05 06:40:10;;;;;;;19.70;10.85;;;-1.10;99.90;;;;;;5044341;28;20095;-71
2022/03/05 06:42:40;;;;;;;21.52;11.38;;;-1.10;99.90;;;;;;5057325;28;20048;-71
2022/03/05 06:45:08;;;;;;;21.60;10.65;;;-1.10;99.90;;;;;;5077141;28;20052;-71
2022/03/05 06:47:37;;;;;;;18.92;9.90;;;-1.10;99.90;;;;;;5054849;28;20105;-72
2022/03/05 06:50:04;;;;;;;18.05;9.90;;;-1.00;99.90;;;;;;5077087;28;20126;-70
2022/03/05 06:52:30;;;;;;;22.35;11.27;;;-1.00;99.90;;;;;;5077003;28;20038;-69
2022/03/05 06:54:57;;;;;;;19.38;10.80;;;-1.00;99.90;;;;;;5049981;28;20057;-69
2022/03/05 06:57:23;;;;;;;22.33;11.23;;;-0.90;99.90;;;;;;5083885;28;20106;-70
2022/03/05 06:59:49;;;;;;;19.60;10.77;;;-0.90;99.90;;;;;;5073906;28;20052;-70
2022/03/05 07:02:15;;;;;;;21.17;10.63;;;-0.90;99.90;;;;;;5048420;28;20049;-69
2022/03/05 07:04:41;;;;;;;19.70;10.43;;;-0.90;99.90;;;;;;5065372;28;20101;-70
2022/03/05 07:07:07;;;;;;;23.10;11.00;;;-0.80;99.90;;;;;;5064930;28;20123;-72
2022/03/05 07:09:32;;;;;;;21.60;11.07;;;-0.80;99.90;;;;;;5099046;28;20037;-70
2022/03/05 07:11:59;;;;;;;19.48;10.90;;;-0.70;99.90;;;;;;5048697;28;20082;-70
2022/03/05 07:14:24;;;;;;;21.42;11.43;;;-0.70;99.90;;;;;;5065717;28;20048;-70
2022/03/05 07:16:50;;;;;;;21.27;11.00;;;-0.70;99.90;;;;;;5065786;28;20079;-70
2022/03/05 07:19:15;;;;;;;19.98;10.82;;;-0.60;99.90;;;;;;5065758;28;20041;-70
2022/03/05 07:21:41;;;;;;;20.40;11.23;;;-0.50;99.90;;;;;;5064231;28;20124;-71
2022/03/05 07:24:08;;;;;;;23.73;11.48;;;-0.50;99.90;;;;;;5082272;28;20037;-70
2022/03/05 07:26:34;;;;;;;26.45;11.48;;;-0.50;99.90;;;;;;5063300;28;20047;-70
2022/03/05 07:29:00;;;;;;;23.50;11.23;;;-0.40;99.90;;;;;;5080537;28;20052;-71
2022/03/05 07:31:26;;;;;;;24.83;12.13;;;-0.30;99.90;;;;;;5082923;28;20127;-72
2022/03/05 07:33:52;;;;;;;21.88;11.45;;;-0.30;99.90;;;;;;5084446;28;20063;-70
2022/03/05 07:36:19;;;;;;;23.08;11.93;;;-0.20;99.90;;;;;;5084874;28;20051;-72
2022/03/05 07:38:45;;;;;;;23.88;11.80;;;-0.20;99.90;;;;;;5085324;28;20048;-70
2022/03/05 07:41:11;;;;;;;22.50;12.50;;;-0.10;99.90;;;;;;5086150;28;20037;-73
2022/03/05 07:43:37;;;;;;;24.52;11.98;;;0.00;99.90;;;;;;5068609;28;20040;-70
2022/03/05 07:46:04;;;;;;;23.98;11.98;;;0.10;99.90;;;;;;5085855;28;20076;-71
2022/03/05 07:48:29;;;;;;;23.35;11.95;;;0.20;99.90;;;;;;5084631;28;20044;-70
2022/03/05 07:50:58;;;;;;;22.75;11.88;;;0.30;99.90;;;;;;5085625;28;20095;-70
2022/03/05 07:53:24;;;;;;;24.00;12.10;;;0.40;99.90;;;;;;5069593;28;20053;-71
2022/03/05 07:55:50;;;;;;;26.27;12.27;;;0.40;99.90;;;;;;5085930;28;20029;-71
2022/03/05 07:58:15;;;;;;;23.70;11.25;;;0.60;99.90;;;;;;5072563;28;20037;-70
2022/03/05 08:00:41;;;;;;;23.80;12.38;;;0.60;99.90;;;;;;5065241;28;20043;-70
2022/03/05 08:03:07;;;;;;;25.40;12.80;;;0.70;99.90;;;;;;5067394;28;20064;-73
2022/03/05 08:05:33;;;;;;;25.88;11.52;;;0.80;99.90;;;;;;5067399;28;20039;-71
2022/03/05 08:07:58;;;;;;;22.73;11.65;;;0.90;99.90;;;;;;5083419;28;20128;-71
2022/03/05 08:10:24;;;;;;;22.65;11.82;;;1.00;99.90;;;;;;5050696;28;20067;-73
2022/03/05 08:12:50;;;;;;;24.27;11.63;;;1.10;99.90;;;;;;5067447;28;20059;-72
2022/03/05 08:15:15;;;;;;;24.83;12.98;;;1.20;99.90;;;;;;5084448;28;20048;-71
2022/03/05 08:17:58;;;;;;;26.55;12.98;;;1.40;99.90;;;;;;5067280;28;20032;-71
2022/03/05 08:20:25;;;;;;;26.20;13.32;;;1.50;99.90;;;;;;5051175;28;20069;-72
2022/03/05 08:22:51;;;;;;;26.25;13.48;;;1.70;99.90;;;;;;5101592;28;20132;-70
2022/03/05 08:25:17;;;;;;;25.75;12.27;;;1.80;99.90;;;;;;5101170;28;20542;-71
2022/03/05 08:27:43;;;;;;;26.00;13.02;;;1.90;99.90;;;;;;5068216;28;20115;-70
2022/03/05 08:30:09;;;;;;;25.15;12.77;;;2.10;99.90;;;;;;5083795;28;20078;-71
2022/03/05 08:32:35;;;;;;;26.13;12.57;;;2.20;99.90;;;;;;5068343;28;20037;-70
2022/03/05 08:35:02;;;;;;;27.13;12.95;;;2.30;99.90;;;;;;5103380;28;20037;-70
2022/03/05 08:37:27;;;;;;;26.30;12.88;;;2.50;99.90;;;;;;5068924;28;20037;-71
2022/03/05 08:39:53;;;;;;;23.20;12.70;;;2.60;99.90;;;;;;5102947;28;20037;-71
2022/03/05 08:42:20;;;;;;;25.88;12.82;;;2.70;99.90;;;;;;5067175;28;20101;-71
2022/03/05 08:44:45;;;;;;;26.35;12.52;;;2.90;99.90;;;;;;5086762;28;20126;-71
2022/03/05 08:47:11;;;;;;;24.55;12.32;;;3.00;99.90;;;;;;5073570;28;20040;-73
2022/03/05 08:49:37;;;;;;;26.27;13.15;;;3.20;99.90;;;;;;5075702;28;20036;-70
2022/03/05 08:52:04;;;;;;;25.60;13.00;;;3.20;99.90;;;;;;5066226;28;20051;-72
2022/03/05 08:54:29;;;;;;;28.52;14.00;;;3.30;99.90;;;;;;5070207;28;20076;-70
2022/03/05 08:56:55;;;;;;;26.20;13.98;;;3.50;99.90;;;;;;5070483;28;20033;-70
2022/03/05 08:59:21;;;;;;;25.30;13.35;;;3.60;99.90;;;;;;5069165;28;20045;-71
2022/03/05 09:01:46;;;;;;;27.00;13.95;;;3.70;99.90;;;;;;5054315;28;20092;-71
2022/03/05 09:04:12;;;;;;;25.95;13.57;;;3.80;99.90;;;;;;5077816;28;20059;-71
2022/03/05 09:06:38;;;;;;;26.77;13.43;;;3.90;99.90;;;;;;5080559;28;20376;-72
2022/03/05 09:09:08;;;;;;;27.67;14.32;;;4.10;99.90;;;;;;5092505;28;20040;-71
2022/03/05 09:11:37;;;;;;;27.90;13.75;;;4.20;99.90;;;;;;5085294;28;20035;-70
2022/03/05 09:14:03;;;;;;;27.60;13.82;;;4.40;99.90;;;;;;5068574;28;20154;-71
2022/03/05 09:16:29;;;;;;;29.60;13.98;;;4.40;99.90;;;;;;5067453;28;20041;-70
2022/03/05 09:18:55;;;;;;;28.00;14.77;;;4.50;99.90;;;;;;5088276;28;20406;-70
2022/03/05 09:21:21;;;;;;;26.55;13.90;;;4.50;99.90;;;;;;5104987;28;20037;-72
2022/03/05 09:23:47;;;;;;;26.83;13.85;;;4.50;99.90;;;;;;5071532;28;20075;-70
2022/03/05 09:26:16;;;;;;;30.13;14.65;;;4.70;99.90;;;;;;5069923;28;20047;-71
2022/03/05 09:28:42;;;;;;;25.38;13.85;;;4.80;99.90;;;;;;5053259;28;20029;-71
2022/03/05 09:31:08;;;;;;;26.73;14.23;;;4.80;99.90;;;;;;5054499;28;20052;-71
2022/03/05 09:33:34;;;;;;;31.02;14.80;;;5.00;99.90;;;;;;5076750;28;20037;-70
2022/03/05 09:35:59;;;;;;;28.80;14.30;;;5.10;99.90;;;;;;5071481;28;20552;-70
2022/03/05 09:38:25;;;;;;;26.08;13.75;;;5.10;99.90;;;;;;5071517;28;20052;-71
2022/03/05 09:40:52;;;;;;;28.92;14.77;;;5.00;99.90;;;;;;5104453;28;20053;-70
2022/03/05 09:43:18;;;;;;;28.63;14.80;;;5.00;99.90;;;;;;5105118;28;20056;-70
2022/03/05 09:45:45;;;;;;;29.50;14.85;;;5.10;99.90;;;;;;5103972;28;20041;-71
2022/03/05 09:48:14;;;;;;;28.77;14.93;;;5.20;99.90;;;;;;5078576;28;20043;-72
2022/03/05 09:50:40;;;;;;;28.30;14.68;;;5.30;99.90;;;;;;5092460;28;20040;-70
2022/03/05 09:53:05;;;;;;;29.65;15.15;;;5.20;99.90;;;;;;5092073;28;20032;-71
2022/03/05 09:55:31;;;;;;;28.80;14.80;;;5.10;99.90;;;;;;5092148;28;20028;-71
2022/03/05 09:57:57;;;;;;;30.70;15.23;;;5.20;99.90;;;;;;5091771;28;20463;-69
2022/03/05 10:00:23;;;;;;;29.00;15.15;;;5.20;99.90;;;;;;5090706;28;20058;-70
2022/03/05 10:02:49;;;;;;;28.15;14.18;;;5.20;99.90;;;;;;5072195;28;20036;-70
2022/03/05 10:05:26;;;;;;;31.08;15.77;;;5.30;99.90;;;;;;5076698;28;20037;-71
2022/03/05 10:08:07;;;;;;;30.88;16.17;;;5.40;99.90;;;;;;5092671;28;20056;-69
2022/03/05 10:10:49;;;;;;;27.13;14.57;;;5.40;99.90;;;;;;5091781;28;20056;-70
2022/03/05 10:13:24;;;;;;;29.58;15.05;;;5.50;99.90;;;;;;5092514;28;20059;-70
2022/03/05 10:15:55;;;;;;;31.52;15.95;;;5.50;99.90;;;;;;5092239;28;20036;-70
2022/03/05 10:18:38;;;;;;;30.10;15.88;;;5.50;99.90;;;;;;5090466;28;20510;-70
2022/03/05 10:21:07;;;;;;;32.63;16.02;;;5.50;99.90;;;;;;5073452;28;20477;-71
2022/03/05 10:23:36;;;;;;;31.65;16.63;;;5.60;99.90;;;;;;5064283;28;20087;-70
2022/03/05 10:26:07;;;;;;;29.25;15.45;;;5.60;99.90;;;;;;5073937;28;20064;-70
2022/03/05 10:28:34;;;;;;;30.70;16.33;;;5.60;99.90;;;;;;5058373;28;20097;-71
2022/03/05 10:31:11;;;;;;;28.35;15.50;;;5.70;99.90;;;;;;5074186;28;20096;-70
2022/03/05 10:33:43;;;;;;;30.90;15.48;;;5.90;99.90;;;;;;5087081;28;20182;-71
2022/03/05 10:36:19;;;;;;;32.53;15.90;;;5.90;99.90;;;;;;5109383;28;20041;-70
2022/03/05 10:39:02;;;;;;;32.13;15.48;;;5.90;99.90;;;;;;5074816;28;20041;-70
2022/03/05 10:41:39;;;;;;;28.55;14.60;;;6.00;99.90;;;;;;5072562;28;20060;-70
2022/03/05 10:44:10;;;;;;;31.00;15.70;;;6.20;99.90;;;;;;5075888;28;20040;-72
2022/03/05 10:47:08;;;;;;;32.30;16.38;;;6.40;99.90;;;;;;5075855;28;20037;-71
2022/03/05 10:49:36;;;;;;;31.80;15.77;;;6.50;99.90;;;;;;5086229;28;20063;-71
2022/03/05 10:52:02;;;;;;;30.05;15.55;;;6.50;99.90;;;;;;5075055;28;20037;-69
2022/03/05 10:54:45;;;;;;;32.25;15.85;;;6.50;99.90;;;;;;5072669;28;20041;-70
2022/03/05 10:57:15;;;;;;;31.05;15.48;;;6.60;99.90;;;;;;5105355;28;20083;-69
2022/03/05 10:59:42;;;;;;;33.78;16.67;;;6.70;99.90;;;;;;5075627;28;20116;-70
2022/03/05 11:02:11;;;;;;;33.92;15.95;;;6.80;99.90;;;;;;5075449;28;20045;-70
2022/03/05 11:04:39;;;;;;;33.58;16.77;;;6.90;99.90;;;;;;5088858;28;20045;-70
2022/03/05 11:07:06;;;;;;;32.00;15.65;;;6.90;99.90;;;;;;5055444;28;20044;-68
2022/03/05 11:09:34;;;;;;;30.90;15.75;;;7.10;99.90;;;;;;5090615;28;20037;-70
2022/03/05 11:12:00;;;;;;;30.85;15.88;;;7.30;99.90;;;;;;5055568;28;20049;-69
2022/03/05 11:14:27;;;;;;;34.60;17.52;;;7.40;99.90;;;;;;5056696;28;20077;-69
2022/03/05 11:16:53;;;;;;;29.25;15.45;;;7.50;99.90;;;;;;5040047;28;20037;-69
2022/03/05 11:19:24;;;;;;;32.35;16.58;;;7.80;99.90;;;;;;5075330;28;20403;-71
2022/03/05 11:21:50;;;;;;;31.67;16.00;;;7.80;97.80;;;;;;5108574;28;20057;-68
2022/03/05 11:24:18;;;;;;;33.20;15.70;;;7.90;96.50;;;;;;5076796;28;20037;-71
2022/03/05 11:26:55;;;;;;;31.75;16.17;;;8.00;97.20;;;;;;5059868;28;20046;-69
2022/03/05 11:29:26;;;;;;;34.38;16.50;;;8.10;94.80;;;;;;5076365;28;20059;-69
2022/03/05 11:31:53;;;;;;;31.40;16.02;;;8.20;94.60;;;;;;5075106;28;20051;-69
2022/03/05 11:34:22;;;;;;;31.77;16.67;;;8.30;94.10;;;;;;5058958;28;20033;-69
2022/03/05 11:36:50;;;;;;;30.85;15.15;;;8.40;94.00;;;;;;5077274;28;20051;-70
2022/03/05 11:39:19;;;;;;;30.02;15.77;;;8.40;93.20;;;;;;5075863;28;20515;-69
2022/03/05 11:42:05;;;;;;;31.50;15.70;;;8.50;92.90;;;;;;5060149;28;20043;-70
2022/03/05 11:44:38;;;;;;;32.15;16.30;;;8.60;90.20;;;;;;5072757;28;20048;-70
2022/03/05 11:47:35;;;;;;;30.85;15.57;;;8.60;91.50;;;;;;5076331;28;20052;-69
2022/03/05 11:50:06;;;;;;;34.97;16.15;;;8.70;90.30;;;;;;5075861;28;20399;-69
2022/03/05 11:52:38;;;;;;;35.80;16.52;;;8.60;90.70;;;;;;5076354;28;20074;-69
2022/03/05 11:55:26;;;;;;;36.67;16.80;;;8.70;90.50;;;;;;5076878;28;20101;-69
2022/03/05 11:57:51;;;;;;;51.85;18.40;;;8.70;89.40;;;;;;5076982;28;20037;-70
2022/03/05 12:00:29;;;;;;;32.25;17.58;;;8.80;90.20;;;;;;5075806;28;20037;-75
2022/03/05 12:02:55;;;;;;;44.90;17.45;;;8.70;87.40;;;;;;5075247;28;20052;-70
2022/03/05 12:05:52;;;;;;;36.22;17.15;;;8.90;87.70;;;;;;5059742;28;20112;-72
2022/03/05 12:08:26;;;;;;;51.10;17.52;;;9.00;82.40;;;;;;5068542;28;20037;-72
2022/03/05 12:11:12;;;;;;;54.00;19.48;;;9.10;85.80;;;;;;5076175;28;20060;-71
2022/03/05 12:13:54;;;;;;;36.03;16.90;;;9.20;84.70;;;;;;5076203;28;20112;-69
2022/03/05 12:16:30;;;;;;;32.35;16.48;;;9.30;84.80;;;;;;5077811;28;20084;-71
2022/03/05 12:18:58;;;;;;;31.55;16.92;;;9.40;83.60;;;;;;5076166;28;20044;-72
2022/03/05 12:21:28;;;;;;;29.73;16.48;;;9.60;83.60;;;;;;5060044;28;20035;-70
2022/03/05 12:24:05;;;;;;;32.40;17.05;;;9.60;82.60;;;;;;5075589;28;20029;-75
2022/03/05 12:26:50;;;;;;;30.85;16.75;;;9.60;81.30;;;;;;5059372;28;20052;-70
2022/03/05 12:29:16;;;;;;;33.83;17.15;;;9.80;81.70;;;;;;5069907;28;20045;-70
2022/03/05 12:31:43;;;;;;;34.20;16.67;;;9.90;80.70;;;;;;5074537;28;20028;-71
2022/03/05 12:34:10;;;;;;;33.47;17.15;;;10.00;79.30;;;;;;5079231;28;20044;-69